Terminal Aerodrome Forecast
Issued by NWS Lake Charles, LA

Home | Current Version | Previous Version | Text Only | Print | Product List | Glossary On
Versions: 1 2 3 4 5 6 7 8 9 10 11 12 13
000
FTUS44 KLCH 030520
TAFAEX
TAF
KAEX 030520Z 0306/0406 00000KT P6SM SKC
      TEMPO 0309/0313 4SM BR
     FM031500 11005KT P6SM VCSH SCT040 PROB30 0317/0323 3SM TSRA
      OVC025CB=

USA.gov is the U.S. government's official web portal to all federal, state and local government web resources and services.